»·PEaware :: ASA916 KSFO-KLAS

ASA916 :: KSFO-KLAS

FLIGHT INFORMATION

Flight Status: Arrived
Operator:
Alaska Airlines
More flights by this operator :: More flights under this callsign
Pilot: James H. (174)
Aircraft: BOEING 737-800
(B738)
More flights by this aircraft type
Origin: KSFO San Francisco Intl
United States
Destination: KLAS McCarran Intl
United States
More flights between these airports :: More routes between these airports
Route: + / KENNO TACUS SUNST4
File this flight plan on PilotEdge
Remarks: PBN / A1B1C1D1L1O1S1 NAV / RNVD1E2A1 DOF / 200820 REG / N516AS EET / KZLA0038 RVR / 200 OPR / ASA PER / C
Altitude:
(Current/Filed)
35,000ft
Speed:
(Current/Filed)
473kts
Departed: 20-Aug-20 08:10 AM
Arrived: 20-Aug-20 09:15 AM
Distance/Time
Traveled:
359nm/1:05
Distance/Time
To Go:
Arrived

Flight Plot

Page will automatically refresh every two minutes.

Flight plan parsing failed; only flown route is shown


Map Options




Map Legend


Flown Route
Filed Route
Departure Airport
Arrival Airport
Navaid (VOR, NDB)
Fix

Horizontal Profiles

Position Reports

Time Latitude Longitude Heading Altitude Ground
Speed
20-Aug-20 07:44 37.618253 -122.380855 235 21ft 0kts
20-Aug-20 07:45 37.618253 -122.380855 235 21ft 0kts
20-Aug-20 07:46 37.618253 -122.380855 235 21ft 0kts
20-Aug-20 07:47 37.618253 -122.380855 235 21ft 0kts
20-Aug-20 07:48 37.618253 -122.380855 235 21ft 0kts
20-Aug-20 07:49 37.618253 -122.380855 235 21ft 0kts
20-Aug-20 07:50 37.618253 -122.380855 235 21ft 0kts
20-Aug-20 07:51 37.618253 -122.380855 235 21ft 0kts
20-Aug-20 07:52 37.618253 -122.380855 235 21ft 0kts
20-Aug-20 07:53 37.618253 -122.380855 235 21ft 0kts
20-Aug-20 07:54 37.618253 -122.380855 235 21ft 0kts
20-Aug-20 07:55 37.618253 -122.380855 235 21ft 0kts
20-Aug-20 07:56 37.618253 -122.380855 235 21ft 0kts
20-Aug-20 07:57 37.618253 -122.380855 235 21ft 0kts
20-Aug-20 07:58 37.618281 -122.380804 235 21ft 2kts
20-Aug-20 07:59 37.618677 -122.380092 235 21ft 0kts
20-Aug-20 08:00 37.618677 -122.380092 235 21ft 0kts
20-Aug-20 08:01 37.618677 -122.380092 235 21ft 0kts
20-Aug-20 08:02 37.618677 -122.380092 235 21ft 0kts
20-Aug-20 08:03 37.618309 -122.379864 134 21ft 7kts
20-Aug-20 08:04 37.616287 -122.379859 207 21ft 12kts
20-Aug-20 08:05 37.613341 -122.381810 207 21ft 11kts
20-Aug-20 08:06 37.610570 -122.383677 207 21ft 12kts
20-Aug-20 08:07 37.608545 -122.383950 117 21ft 6kts
20-Aug-20 08:08 37.608589 -122.382516 36 21ft 6kts
20-Aug-20 08:09 37.617060 -122.376873 25 21ft 123kts
20-Aug-20 08:10 37.659168 -122.358516 350 2718ft 168kts
20-Aug-20 08:11 37.705274 -122.390306 287 5019ft 248kts
20-Aug-20 08:12 37.659038 -122.443585 173 8428ft 291kts
20-Aug-20 08:13 37.577905 -122.450180 196 11866ft 303kts
20-Aug-20 08:14 37.484394 -122.463391 167 13142ft 386kts
20-Aug-20 08:15 37.413544 -122.358857 106 15290ft 428kts
20-Aug-20 08:16 37.387465 -122.210469 107 17575ft 440kts
20-Aug-20 08:17 37.355768 -122.059283 106 18965ft 450kts
20-Aug-20 08:18 37.324719 -121.907007 105 19234ft 454kts
20-Aug-20 08:19 37.293934 -121.751836 105 21084ft 463kts
20-Aug-20 08:20 37.280579 -121.589856 90 22930ft 468kts
20-Aug-20 08:21 37.283987 -121.425196 89 24436ft 476kts
20-Aug-20 08:22 37.287162 -121.257367 89 25697ft 485kts
20-Aug-20 08:23 37.290880 -121.086247 89 26812ft 494kts
20-Aug-20 08:24 37.294173 -120.912317 89 27781ft 503kts
20-Aug-20 08:25 37.297108 -120.735660 89 28867ft 506kts
20-Aug-20 08:26 37.299773 -120.559291 90 30183ft 504kts
20-Aug-20 08:27 37.302195 -120.382706 89 31567ft 503kts
20-Aug-20 08:28 37.304680 -120.210803 89 33704ft 485kts
20-Aug-20 08:29 37.306386 -120.041520 89 34925ft 488kts
20-Aug-20 08:30 37.308007 -119.868979 90 34977ft 494kts
20-Aug-20 08:31 37.308781 -119.696535 90 34998ft 492kts
20-Aug-20 08:32 37.309297 -119.524452 90 35049ft 492kts
20-Aug-20 08:33 37.310299 -119.352984 90 35105ft 491kts
20-Aug-20 08:34 37.310736 -119.181081 91 35177ft 491kts
20-Aug-20 08:36 37.311174 -119.009804 91 35247ft 490kts
20-Aug-20 08:37 37.310768 -118.838294 91 35300ft 489kts
20-Aug-20 08:38 37.310213 -118.667254 91 35252ft 490kts
20-Aug-20 08:39 37.309302 -118.496068 91 35184ft 491kts
20-Aug-20 08:40 37.308161 -118.324358 91 35140ft 491kts
20-Aug-20 08:41 37.307778 -118.152485 92 35128ft 491kts
20-Aug-20 08:42 37.306148 -117.980879 92 35127ft 491kts
20-Aug-20 08:43 37.304370 -117.809935 92 35128ft 490kts
20-Aug-20 08:44 37.302814 -117.639045 92 35132ft 489kts
20-Aug-20 08:45 37.300542 -117.468054 92 35136ft 488kts
20-Aug-20 08:46 37.287237 -117.300287 112 35138ft 482kts
20-Aug-20 08:47 37.219712 -117.156620 125 35130ft 476kts
20-Aug-20 08:48 37.147431 -117.017921 125 35119ft 476kts
20-Aug-20 08:49 37.068763 -116.890486 141 35103ft 469kts
20-Aug-20 08:49 36.979904 -116.812356 148 35086ft 467kts
20-Aug-20 08:51 36.911816 -116.755904 148 34836ft 468kts
20-Aug-20 08:52 36.804382 -116.664533 143 31725ft 470kts
20-Aug-20 08:52 36.724122 -116.572449 138 29162ft 466kts
20-Aug-20 08:53 36.631401 -116.463230 138 26684ft 449kts
20-Aug-20 08:55 36.526907 -116.341689 139 23842ft 432kts
20-Aug-20 08:55 36.454808 -116.257529 137 21849ft 421kts
20-Aug-20 08:56 36.378818 -116.149781 133 19500ft 407kts
20-Aug-20 08:58 36.293227 -116.029546 134 16881ft 389kts
20-Aug-20 08:58 36.235851 -115.949483 134 16249ft 349kts
20-Aug-20 08:59 36.185422 -115.854703 114 15649ft 327kts
20-Aug-20 09:00 36.152324 -115.749799 114 14627ft 325kts
20-Aug-20 09:01 36.119299 -115.647485 114 13636ft 322kts
20-Aug-20 09:02 36.086149 -115.544469 114 12620ft 319kts
20-Aug-20 09:03 36.053437 -115.444004 113 11666ft 310kts
20-Aug-20 09:04 36.028390 -115.345535 97 10701ft 297kts
20-Aug-20 09:05 36.021645 -115.245133 95 9508ft 288kts
20-Aug-20 09:06 36.014949 -115.149113 94 8593ft 275kts
20-Aug-20 09:07 36.011089 -115.059239 91 7985ft 249kts
20-Aug-20 09:08 36.009287 -114.977163 91 7336ft 214kts
20-Aug-20 09:09 36.021844 -114.911344 27 5644ft 206kts
20-Aug-20 09:10 36.060108 -114.946671 291 3978ft 195kts
20-Aug-20 09:11 36.074526 -115.010191 265 3786ft 196kts
20-Aug-20 09:12 36.073711 -115.075670 268 2989ft 170kts
20-Aug-20 09:13 36.073658 -115.130688 267 2196ft 150kts
20-Aug-20 09:14 36.073973 -115.148749 288 2189ft 14kts
20-Aug-20 09:15 36.075301 -115.151297 330 2189ft 0kts
20-Aug-20 09:16 36.078024 -115.151120 358 2189ft 9kts
20-Aug-20 09:17 36.078567 -115.147839 93 2189ft 12kts
20-Aug-20 09:18 36.078306 -115.143872 94 2189ft 10kts
20-Aug-20 09:19 36.080398 -115.142437 359 2189ft 12kts
20-Aug-20 09:20 36.080648 -115.140665 125 2189ft 0kts
20-Aug-20 09:21 36.080648 -115.140665 125 2189ft 0kts
20-Aug-20 09:22 36.080648 -115.140665 125 2189ft 0kts

Navigation Log

Ident Type
Flight plan parsing failed, navigation log unavailable